Latest Coastal Weather Observations for Nullarbor

IDS60701

Issued at 10:21 pm CDT Thursday 23 February 2017 (issued every 10 minutes, with the page automatically refreshed every 10 minutes)

About coastal observations | Map of coastal stations | Coastal observations for SA | Marine services | Other Formats
Station Details ID: 018106 Name: NULLARBOR Lat: -31.45 Lon: 130.90 Height: 64.0 m
Data from the previous 72 hours. | See also: Recent months at Nullarbor
Date/Time
CDT
Temp
°C
Wind Pressure Rain since
9am
mm
Weather Cloud Vis
km
Sea
Height
m
Swell
Dir  Spd
kts
Gust
kts
hPa Trend Height
m
Period
s
Dir
23/10:00pm 14.7 SE 7 7 1025.2 - 0.0 - - 10 - - - -
23/09:30pm 15.7 S 7 8 1024.7 - 0.0 - - 10 - - - -
23/09:00pm 17.3 SSE 7 9 1024.4 - 0.0 - - 10 - - - -
23/08:30pm 18.6 S 10 13 1024.1 - 0.0 - - 10 - - - -
23/08:00pm 19.8 S 12 16 1023.9 - 0.0 - Partly cloudy 10 - - - -
23/07:30pm 20.2 SSE 12 18 1023.9 - 0.0 - Cloudy 10 - - - -
23/07:00pm 20.4 SSE 12 16 1023.6 - 0.0 - Cloudy 10 - - - -
23/06:30pm 20.7 S 12 16 1023.5 - 0.0 - Cloudy 10 - - - -
23/06:00pm 21.0 SSE 12 18 1023.3 - 0.0 - Mostly cloudy 10 - - - -
23/05:30pm 21.4 SSE 12 17 1023.1 - 0.0 - Cloudy 10 - - - -
23/05:00pm 22.3 S 11 15 1023.0 - 0.0 - Partly cloudy 10 - - - -
23/04:30pm 23.0 S 12 17 1023.0 - 0.0 - Partly cloudy 10 - - - -
23/04:00pm 23.1 S 13 19 1023.0 - 0.0 - Partly cloudy 10 - - - -
23/03:30pm 23.0 S 10 14 1023.2 - 0.0 - Partly cloudy 10 - - - -
23/03:00pm 23.8 S 11 15 1023.2 - 0.0 - Mostly cloudy 10 - - - -
23/02:30pm 23.8 S 11 17 1023.5 - 0.0 - Partly cloudy 10 - - - -
23/02:00pm 22.9 S 11 16 1023.5 - 0.0 - Partly cloudy 10 - - - -
23/01:30pm 23.0 S 12 18 1023.5 - 0.0 - Partly cloudy 10 - - - -
23/01:00pm 22.2 S 11 16 1023.5 - 0.0 - Partly cloudy 10 - - - -
23/12:30pm 21.7 S 10 15 1023.7 - 0.0 - Partly cloudy 10 - - - -
23/12:00pm 22.6 SSE 11 17 1023.6 - 0.0 - Mostly cloudy 10 - - - -
23/11:30am 21.6 SSE 11 16 1023.8 - 0.0 - Partly cloudy 10 - - - -
23/11:00am 21.8 S 11 15 1023.6 - 0.0 - Partly cloudy 10 - - - -
23/10:30am 20.5 S 10 13 1023.5 - 0.0 - Cloudy 10 - - - -
23/10:00am 19.7 SSW 8 12 1023.3 - 0.0 - Cloudy 10 - - - -
23/09:30am 18.6 SSW 5 7 1022.9 - 0.0 - Cloudy 10 - - - -
23/09:00am 15.9 W 3 4 1022.5 - 0.0 - Mostly cloudy 10 - - - -
23/08:30am 13.3 W 4 5 1022.2 - 0.0 - Partly cloudy 10 - - - -
23/08:00am 10.9 WNW 5 6 1021.8 - 0.0 - - 10 - - - -
23/07:30am 10.6 WNW 5 8 1021.4 - 0.0 - Partly cloudy 10 - - - -
23/07:00am 11.1 WNW 5 6 1021.1 - 0.0 - - 10 - - - -
23/06:30am 11.5 WNW 4 4 1020.8 - 0.0 - - 10 - - - -
23/06:00am 11.3 NW 5 6 1020.6 - 0.0 - - 10 - - - -
23/05:30am 11.7 W 6 7 1020.5 - 0.0 - - 10 - - - -
23/05:00am 12.2 WNW 6 8 1020.4 - 0.0 - - 10 - - - -
23/04:30am 13.0 WNW 3 4 1020.2 - 0.0 - - 10 - - - -
23/04:00am 13.7 WSW 5 6 1020.2 - 0.0 - Partly cloudy 10 - - - -
23/03:30am 13.2 W 6 7 1020.2 - 0.0 - Partly cloudy 10 - - - -
23/03:00am 12.9 NW 6 7 1020.2 - 0.0 - Mostly clear 10 - - - -
23/02:30am 13.4 WNW 4 5 1020.1 - 0.0 - Partly cloudy 10 - - - -
23/02:00am 13.8 CALM 0 2 1020.1 - 0.0 - - 10 - - - -
23/01:30am 15.3 SSW 5 5 1020.3 - 0.0 - - 10 - - - -
23/01:00am 15.3 SSW 6 7 1020.5 - 0.0 - - 10 - - - -
23/12:30am 15.5 SSW 9 12 1020.3 - 0.0 - - 10 - - - -
23/12:00am 14.8 SSW 7 9 1020.5 - 0.0 - - 10 - - - -
 
Date/Time
CDT
Temp
°C
Wind Pressure Rain since
9am
mm
Weather Cloud Vis
km
Sea
Height
m
Swell
Dir  Spd
kts
Gust
kts
hPa Trend Height
m
Period
s
Dir
22/11:30pm 15.2 SSW 7 9 1020.6 - 0.0 - - 10 - - - -
22/11:00pm 16.1 SSW 5 6 1020.4 - 0.0 - - 10 - - - -
22/10:30pm 15.9 SSW 7 8 1020.1 - 0.0 - - 10 - - - -
22/10:00pm 16.3 SSW 7 8 1019.8 - 0.0 - - 10 - - - -
22/09:30pm 17.1 SSW 6 7 1019.5 - 0.0 - - 10 - - - -
22/09:00pm 18.3 SSW 7 10 1019.0 - 0.0 - - 10 - - - -
22/08:30pm 19.1 SSW 12 16 1018.5 - 0.0 - - 10 - - - -
22/08:00pm 19.8 SSW 13 18 1018.0 - 0.0 - - 10 - - - -
22/07:30pm 20.7 SW 14 20 1017.7 - 0.0 - - 10 - - - -
22/07:00pm 21.3 SW 16 19 1017.3 - 0.0 - - 10 - - - -
22/06:30pm 22.1 SW 14 19 1017.0 - 0.0 - - 10 - - - -
22/06:00pm 22.0 SW 16 21 1016.9 - 0.0 - - 10 - - - -
22/05:30pm 22.8 SW 15 22 1016.7 - 0.0 - - 10 - - - -
22/05:00pm 23.1 SW 15 21 1016.5 - 0.0 - - 10 - - - -
22/04:30pm 23.4 SW 15 22 1016.3 - 0.0 - - 10 - - - -
22/04:00pm 23.6 SW 16 23 1016.2 - 0.0 - - 10 - - - -
22/03:30pm 24.1 SW 14 19 1016.0 - 0.0 - - 10 - - - -
22/03:00pm 23.0 WSW 13 20 1016.1 - 0.0 - - 10 - - - -
22/02:59pm 23.5 WSW 13 20 1016.0 - 0.0 - - 10 - - - -
22/02:42pm 23.3 WSW 15 25 1016.1 - 0.0 - Partly cloudy 5 - - - -
22/02:41pm 23.2 WSW 16 25 1016.0 - 0.0 - Partly cloudy 5 - - - -
22/02:40pm 24.1 WSW 15 25 1015.9 - 0.0 - Partly cloudy 8 - - - -
22/02:30pm 23.5 SW 13 20 1016.0 - 0.0 - Partly cloudy 10 - - - -
22/02:00pm 23.0 WSW 13 20 1016.2 - 0.0 - - 10 - - - -
22/01:30pm 23.5 WSW 13 19 1016.1 - 0.0 - Partly cloudy 10 - - - -
22/01:00pm 22.9 WSW 13 20 1016.1 - 0.0 - Partly cloudy 10 - - - -
22/12:30pm 22.0 W 12 21 1016.2 - 0.0 - Partly cloudy 10 - - - -
22/12:00pm 21.8 WSW 11 17 1016.2 - 0.0 - Cloudy 10 - - - -
22/11:30am 21.7 W 10 16 1016.0 - 0.0 - Partly cloudy 10 - - - -
22/11:00am 20.8 W 11 17 1015.8 - 0.0 - - 10 - - - -
22/10:30am 20.0 WNW 11 15 1015.6 - 0.0 - - 10 - - - -
22/10:00am 19.4 WNW 11 13 1015.3 - 0.0 - - 10 - - - -
22/09:30am 18.3 WNW 9 12 1015.2 - 0.0 - Partly cloudy 10 - - - -
22/09:00am 16.9 NW 9 13 1015.1 - 0.0 - Mostly clear 10 - - - -
22/08:30am 15.3 NW 7 10 1014.8 - 0.0 - - 10 - - - -
22/08:00am 13.5 NW 6 8 1014.3 - 0.0 - - 10 - - - -
22/07:30am 13.8 NW 7 7 1013.8 - 0.0 - - 10 - - - -
22/07:00am 14.7 WNW 5 6 1013.3 - 0.0 - - 10 - - - -
22/06:30am 15.7 W 6 7 1013.0 - 0.0 - Partly cloudy 10 - - - -
22/06:00am 17.2 W 7 9 1012.6 - 0.0 - Mostly clear 10 - - - -
22/05:30am 17.9 WSW 9 11 1012.1 - 0.0 - Partly cloudy 10 - - - -
22/05:00am 17.9 WSW 9 11 1011.8 - 0.0 - Partly cloudy 10 - - - -
22/04:30am 18.1 WSW 14 22 1011.7 - 0.0 - Partly cloudy 10 - - - -
22/04:00am 18.3 WSW 16 21 1011.2 - 0.0 - Partly cloudy 10 - - - -
22/03:30am 18.5 SW 18 23 1011.0 - 0.0 - Partly cloudy 10 - - - -
22/03:00am 18.6 SW 17 25 1010.6 - 0.0 - Mostly cloudy 10 - - - -
22/02:30am 19.2 SW 17 27 1010.4 - 0.0 - Partly cloudy 10 - - - -
22/02:00am 19.5 SW 19 29 1010.0 - 0.0 - - 10 - - - -
22/01:51am 19.6 SW 19 29 1009.9 - 0.0 - - 10 - - - -
22/01:30am 19.8 SW 18 24 1009.7 - 0.0 - Partly cloudy 10 - - - -
22/01:00am 20.0 SW 23 33 1009.4 - 0.0 - Partly cloudy 10 - - - -
22/12:31am 20.3 WSW 25 35 1008.6 - 0.0 - Partly cloudy 9 - - - -
22/12:30am 20.4 SW 25 32 1008.8 - 0.0 - Partly cloudy 9 - - - -
22/12:16am 20.4 SW 18 28 1008.5 - 0.0 - Partly cloudy 10 - - - -
22/12:00am 20.3 SW 18 23 1008.3 - 0.0 - Partly cloudy 10 - - - -
 
Date/Time
CDT
Temp
°C
Wind Pressure Rain since
9am
mm
Weather Cloud Vis
km
Sea
Height
m
Swell
Dir  Spd
kts
Gust
kts
hPa Trend Height
m
Period
s
Dir
21/11:45pm 20.5 SW 20 30 1008.0 - 0.0 - Partly cloudy 10 - - - -
21/11:43pm 20.5 SW 19 28 1008.0 - 0.0 - Partly cloudy 10 - - - -
21/11:30pm 20.7 SW 23 33 1007.6 - 0.0 - Partly cloudy 6 - - - -
21/11:03pm 21.5 SW 23 35 1006.7 - 0.0 - Partly cloudy 6 - - - -
21/11:00pm 21.7 SW 22 28 1006.8 - 0.0 - Partly cloudy 6 - - - -
21/10:42pm 23.3 WSW 23 33 1006.4 - 0.0 - - 7 - - - -
21/10:30pm 25.2 WSW 25 33 1005.8 - 0.0 - - 2 - - - -
21/10:22pm 27.7 WNW 16 29 1005.1 - 0.0 - - 7 - - - -
21/10:18pm 28.9 NNW 10 28 1005.3 - 0.0 - - 10 - - - -
21/10:00pm 29.6 NNE 10 13 1003.3 - 0.0 - - 10 - - - -
21/09:30pm 28.8 NNE 10 13 1003.3 - 0.0 - - 10 - - - -
21/09:00pm 28.7 NNE 9 10 1003.1 - 0.0 - Mostly cloudy 10 - - - -
21/08:30pm 30.9 N 9 11 1003.1 - 0.0 - - 10 - - - -
21/08:00pm 33.3 N 11 15 1003.0 - 0.0 - - 10 - - - -
21/07:30pm 35.0 N 16 21 1002.8 - 0.0 - - 10 - - - -
21/07:14pm 35.4 N 17 27 1002.7 - 0.0 - - 10 - - - -
21/07:00pm 35.9 N 18 25 1002.9 - 0.0 - - 10 - - - -
21/06:30pm 36.4 N 19 28 1003.3 - 0.0 - - 10 - - - -
21/06:26pm 36.2 N 18 28 1003.3 - 0.0 - - 10 - - - -
21/06:00pm 36.9 N 20 28 1003.6 - 0.0 - Mostly clear 10 - - - -
21/05:53pm 35.7 N 18 28 1003.6 - 0.0 - - 10 - - - -
21/05:30pm 37.1 N 20 27 1004.1 - 0.0 - - 10 - - - -
21/05:00pm 37.0 N 21 29 1004.7 - 0.0 - - 10 - - - -
21/04:42pm 36.9 NNW 18 28 1004.7 - 0.0 - - 10 - - - -
21/04:30pm 36.1 NNW 17 26 1004.8 - 0.0 - - 10 - - - -
21/04:00pm 37.1 N 19 30 1005.5 - 0.0 - - 10 - - - -
21/03:56pm 37.1 N 18 30 1005.4 - 0.0 - - 10 - - - -
21/03:30pm 36.7 N 20 28 1006.1 - 0.0 - - 10 - - - -
21/03:00pm 36.3 N 20 30 1006.7 - 0.0 - - 10 - - - -
21/02:46pm 36.0 N 22 32 1006.9 - 0.0 - - 10 - - - -
21/02:30pm 35.6 N 21 29 1007.3 - 0.0 - - 10 - - - -
21/02:05pm 35.5 N 20 30 1007.7 - 0.0 - - 10 - - - -
21/02:00pm 35.0 N 21 29 1007.9 - 0.0 - - 10 - - - -
21/01:33pm 34.5 N 21 31 1008.3 - 0.0 - - 10 - - - -
21/01:30pm 34.5 N 22 31 1008.4 - 0.0 - - 10 - - - -
21/01:00pm 34.1 N 21 29 1009.0 - 0.0 - - 10 - - - -
21/12:30pm 33.0 N 22 33 1009.7 - 0.0 - - 10 - - - -
21/12:20pm 32.8 N 20 32 1009.7 - 0.0 - - 10 - - - -
21/12:00pm 32.1 N 21 28 1010.3 - 0.0 - - 10 - - - -
21/11:30am 30.2 N 20 27 1011.0 - 0.0 - - 10 - - - -
21/11:00am 28.4 N 20 26 1011.6 - 0.0 - - 10 - - - -
21/10:30am 26.3 NNE 19 25 1011.8 - 0.0 - - 10 - - - -
21/10:00am 23.6 NNE 15 20 1012.2 - 0.0 - - 10 - - - -
21/09:30am 20.7 NNE 14 19 1012.5 - 0.0 - - 10 - - - -
21/09:00am 18.1 NE 13 17 1012.5 - 0.0 - Mostly clear 10 - - - -
21/08:30am 15.5 NE 12 17 1012.5 - 0.0 - - 10 - - - -
21/08:00am 13.2 NE 10 13 1012.4 - 0.0 - - 10 - - - -
21/07:30am 12.1 NE 10 12 1012.3 - 0.0 - - 10 - - - -
21/07:00am 12.0 NE 10 12 1012.3 - 0.0 - - 10 - - - -
21/06:30am 11.7 NE 9 11 1012.4 - 0.0 - - 10 - - - -
21/06:00am 11.0 NE 8 9 1012.5 - 0.0 - - 10 - - - -
21/05:30am 11.3 ENE 8 9 1012.6 - 0.0 - - 10 - - - -
21/05:00am 10.9 ENE 7 8 1012.8 - 0.0 - - 10 - - - -
21/04:30am 11.2 ENE 7 8 1013.0 - 0.0 - - 10 - - - -
21/04:00am 11.4 E 7 8 1013.2 - 0.0 - - 10 - - - -
21/03:30am 12.3 ENE 6 6 1013.3 - 0.0 - - 10 - - - -
21/03:00am 13.3 E 7 9 1013.2 - 0.0 - - 10 - - - -
21/02:30am 14.1 E 9 11 1013.5 - 0.0 - - 10 - - - -
21/02:00am 14.7 E 10 13 1014.0 - 0.0 - - 10 - - - -
21/01:30am 15.2 E 11 14 1014.2 - 0.0 - - 10 - - - -
21/01:00am 15.4 E 11 15 1014.6 - 0.0 - - 10 - - - -
21/12:30am 15.8 E 12 14 1015.0 - 0.0 - - 10 - - - -
21/12:00am 16.5 E 11 13 1015.5 - 0.0 - - 10 - - - -
 
Date/Time
CDT
Temp
°C
Wind Pressure Rain since
9am
mm
Weather Cloud Vis
km
Sea
Height
m
Swell
Dir  Spd
kts
Gust
kts
hPa Trend Height
m
Period
s
Dir
20/11:30pm 16.6 ESE 12 16 1015.7 - 0.0 - - 10 - - - -
20/11:00pm 16.5 ESE 10 12 1015.9 - 0.0 - - 10 - - - -
20/10:30pm 16.8 ESE 10 12 1016.2 - 0.0 - - 10 - - - -

Other Formats:

Comma delimited format used in spreadsheet applications
http://www.bom.gov.au/fwo/IDS60701/IDS60701.94651.axf

JavaScript Object Notation format (JSON) in row-major order
http://www.bom.gov.au/fwo/IDS60701/IDS60701.94651.json